sensor_id;sensor_type;location;lat;lon;timestamp;P1;durP1;ratioP1;P2;durP2;ratioP2
75297;SDS011;63896;45.990;18.688;2022-10-16T00:02:27;15.95;;;7.53;;
75297;SDS011;63896;45.990;18.688;2022-10-16T00:05:31;17.27;;;8.30;;
75297;SDS011;63896;45.990;18.688;2022-10-16T00:08:34;16.87;;;8.57;;
75297;SDS011;63896;45.990;18.688;2022-10-16T00:11:39;16.20;;;8.23;;
75297;SDS011;63896;45.990;18.688;2022-10-16T00:14:43;16.60;;;8.65;;
75297;SDS011;63896;45.990;18.688;2022-10-16T00:17:46;14.35;;;8.93;;
75297;SDS011;63896;45.990;18.688;2022-10-16T00:20:48;18.77;;;9.43;;
75297;SDS011;63896;45.990;18.688;2022-10-16T00:23:52;18.17;;;8.77;;
75297;SDS011;63896;45.990;18.688;2022-10-16T00:26:56;16.60;;;9.48;;
75297;SDS011;63896;45.990;18.688;2022-10-16T00:29:59;16.00;;;9.57;;
75297;SDS011;63896;45.990;18.688;2022-10-16T00:33:02;15.05;;;9.18;;
75297;SDS011;63896;45.990;18.688;2022-10-16T00:36:05;15.38;;;8.65;;
75297;SDS011;63896;45.990;18.688;2022-10-16T00:39:09;15.97;;;8.33;;
75297;SDS011;63896;45.990;18.688;2022-10-16T00:42:16;16.88;;;8.23;;
75297;SDS011;63896;45.990;18.688;2022-10-16T00:45:20;18.27;;;8.40;;
75297;SDS011;63896;45.990;18.688;2022-10-16T00:48:23;15.23;;;8.63;;
75297;SDS011;63896;45.990;18.688;2022-10-16T00:51:28;19.67;;;9.02;;
75297;SDS011;63896;45.990;18.688;2022-10-16T00:54:44;15.73;;;8.93;;
75297;SDS011;63896;45.990;18.688;2022-10-16T00:57:49;14.90;;;8.52;;
75297;SDS011;63896;45.990;18.688;2022-10-16T01:00:54;16.05;;;8.95;;
75297;SDS011;63896;45.990;18.688;2022-10-16T01:03:57;13.25;;;8.48;;
75297;SDS011;63896;45.990;18.688;2022-10-16T01:13:57;15.70;;;8.65;;
75297;SDS011;63896;45.990;18.688;2022-10-16T01:17:08;18.48;;;9.05;;
75297;SDS011;63896;45.990;18.688;2022-10-16T01:24:17;16.95;;;9.40;;
75297;SDS011;63896;45.990;18.688;2022-10-16T01:27:22;20.83;;;10.07;;
75297;SDS011;63896;45.990;18.688;2022-10-16T01:30:30;21.90;;;10.00;;
75297;SDS011;63896;45.990;18.688;2022-10-16T01:33:42;16.67;;;9.20;;
75297;SDS011;63896;45.990;18.688;2022-10-16T01:36:50;15.07;;;9.18;;
75297;SDS011;63896;45.990;18.688;2022-10-16T01:39:58;16.45;;;9.55;;
75297;SDS011;63896;45.990;18.688;2022-10-16T01:43:04;18.47;;;8.97;;
75297;SDS011;63896;45.990;18.688;2022-10-16T01:46:10;14.05;;;7.90;;
75297;SDS011;63896;45.990;18.688;2022-10-16T01:49:18;16.05;;;8.10;;
75297;SDS011;63896;45.990;18.688;2022-10-16T01:52:23;15.32;;;8.77;;
75297;SDS011;63896;45.990;18.688;2022-10-16T01:55:31;15.90;;;8.82;;
75297;SDS011;63896;45.990;18.688;2022-10-16T01:58:40;14.57;;;9.20;;
75297;SDS011;63896;45.990;18.688;2022-10-16T02:01:48;20.02;;;8.70;;
75297;SDS011;63896;45.990;18.688;2022-10-16T02:04:57;20.58;;;8.85;;
75297;SDS011;63896;45.990;18.688;2022-10-16T02:08:04;17.23;;;9.32;;
75297;SDS011;63896;45.990;18.688;2022-10-16T02:11:07;17.80;;;9.25;;
75297;SDS011;63896;45.990;18.688;2022-10-16T02:14:09;16.90;;;8.97;;
75297;SDS011;63896;45.990;18.688;2022-10-16T02:17:13;16.65;;;9.07;;
75297;SDS011;63896;45.990;18.688;2022-10-16T02:20:19;17.88;;;8.25;;
75297;SDS011;63896;45.990;18.688;2022-10-16T02:23:29;16.40;;;8.48;;
75297;SDS011;63896;45.990;18.688;2022-10-16T02:33:19;15.75;;;8.27;;
75297;SDS011;63896;45.990;18.688;2022-10-16T02:36:25;13.93;;;7.63;;
75297;SDS011;63896;45.990;18.688;2022-10-16T02:39:31;21.00;;;8.10;;
75297;SDS011;63896;45.990;18.688;2022-10-16T02:42:36;13.73;;;7.65;;
75297;SDS011;63896;45.990;18.688;2022-10-16T02:45:41;14.10;;;7.83;;
75297;SDS011;63896;45.990;18.688;2022-10-16T02:48:44;16.05;;;8.00;;
75297;SDS011;63896;45.990;18.688;2022-10-16T02:51:47;15.50;;;8.25;;
75297;SDS011;63896;45.990;18.688;2022-10-16T02:54:49;15.48;;;8.05;;
75297;SDS011;63896;45.990;18.688;2022-10-16T02:57:52;19.25;;;8.60;;
75297;SDS011;63896;45.990;18.688;2022-10-16T03:00:55;17.93;;;9.00;;
75297;SDS011;63896;45.990;18.688;2022-10-16T03:03:58;16.25;;;8.63;;
75297;SDS011;63896;45.990;18.688;2022-10-16T03:07:01;14.57;;;8.80;;
75297;SDS011;63896;45.990;18.688;2022-10-16T03:10:04;19.20;;;9.55;;
75297;SDS011;63896;45.990;18.688;2022-10-16T03:13:07;17.63;;;9.60;;
75297;SDS011;63896;45.990;18.688;2022-10-16T03:16:10;16.97;;;10.27;;
75297;SDS011;63896;45.990;18.688;2022-10-16T03:19:13;19.63;;;9.25;;
75297;SDS011;63896;45.990;18.688;2022-10-16T03:22:15;17.85;;;10.05;;
75297;SDS011;63896;45.990;18.688;2022-10-16T03:25:18;16.95;;;9.32;;
75297;SDS011;63896;45.990;18.688;2022-10-16T03:28:21;15.77;;;9.35;;
75297;SDS011;63896;45.990;18.688;2022-10-16T03:31:24;15.67;;;9.73;;
75297;SDS011;63896;45.990;18.688;2022-10-16T03:34:26;16.60;;;9.02;;
75297;SDS011;63896;45.990;18.688;2022-10-16T03:37:30;22.08;;;9.80;;
75297;SDS011;63896;45.990;18.688;2022-10-16T03:40:32;20.42;;;9.50;;
75297;SDS011;63896;45.990;18.688;2022-10-16T03:43:35;16.13;;;8.55;;
75297;SDS011;63896;45.990;18.688;2022-10-16T03:46:38;16.77;;;9.13;;
75297;SDS011;63896;45.990;18.688;2022-10-16T03:49:42;15.32;;;9.38;;
75297;SDS011;63896;45.990;18.688;2022-10-16T03:52:45;15.90;;;9.30;;
75297;SDS011;63896;45.990;18.688;2022-10-16T03:55:47;13.55;;;8.38;;
75297;SDS011;63896;45.990;18.688;2022-10-16T03:58:51;17.27;;;8.73;;
75297;SDS011;63896;45.990;18.688;2022-10-16T04:01:54;14.83;;;8.37;;
75297;SDS011;63896;45.990;18.688;2022-10-16T04:04:56;17.60;;;8.80;;
75297;SDS011;63896;45.990;18.688;2022-10-16T04:07:59;15.65;;;8.68;;
75297;SDS011;63896;45.990;18.688;2022-10-16T04:11:02;17.50;;;9.30;;
75297;SDS011;63896;45.990;18.688;2022-10-16T04:14:05;14.75;;;8.65;;
75297;SDS011;63896;45.990;18.688;2022-10-16T04:17:08;16.03;;;9.33;;
75297;SDS011;63896;45.990;18.688;2022-10-16T04:20:11;21.90;;;10.45;;
75297;SDS011;63896;45.990;18.688;2022-10-16T04:23:14;18.67;;;9.50;;
75297;SDS011;63896;45.990;18.688;2022-10-16T04:26:16;18.58;;;10.50;;
75297;SDS011;63896;45.990;18.688;2022-10-16T04:29:19;16.52;;;9.75;;
75297;SDS011;63896;45.990;18.688;2022-10-16T04:32:22;18.13;;;9.87;;
75297;SDS011;63896;45.990;18.688;2022-10-16T04:35:24;20.60;;;9.52;;
75297;SDS011;63896;45.990;18.688;2022-10-16T04:38:28;17.90;;;9.88;;
75297;SDS011;63896;45.990;18.688;2022-10-16T04:41:31;17.90;;;9.93;;
75297;SDS011;63896;45.990;18.688;2022-10-16T04:44:33;17.95;;;9.88;;
75297;SDS011;63896;45.990;18.688;2022-10-16T04:47:36;17.83;;;9.83;;
75297;SDS011;63896;45.990;18.688;2022-10-16T04:50:39;20.30;;;10.40;;
75297;SDS011;63896;45.990;18.688;2022-10-16T04:53:42;19.42;;;10.18;;
75297;SDS011;63896;45.990;18.688;2022-10-16T04:56:44;14.65;;;9.60;;
75297;SDS011;63896;45.990;18.688;2022-10-16T04:59:52;21.70;;;9.98;;
75297;SDS011;63896;45.990;18.688;2022-10-16T05:02:55;18.07;;;9.70;;
75297;SDS011;63896;45.990;18.688;2022-10-16T05:05:59;19.95;;;10.18;;
75297;SDS011;63896;45.990;18.688;2022-10-16T05:09:02;16.83;;;9.73;;
75297;SDS011;63896;45.990;18.688;2022-10-16T05:12:05;14.05;;;9.02;;
75297;SDS011;63896;45.990;18.688;2022-10-16T05:15:08;19.63;;;9.85;;
75297;SDS011;63896;45.990;18.688;2022-10-16T05:18:11;20.90;;;9.27;;
75297;SDS011;63896;45.990;18.688;2022-10-16T05:21:14;20.80;;;9.15;;
75297;SDS011;63896;45.990;18.688;2022-10-16T05:24:17;21.88;;;10.55;;
75297;SDS011;63896;45.990;18.688;2022-10-16T05:27:20;24.98;;;10.23;;
75297;SDS011;63896;45.990;18.688;2022-10-16T05:30:23;35.25;;;18.40;;
75297;SDS011;63896;45.990;18.688;2022-10-16T05:33:26;51.30;;;28.00;;
75297;SDS011;63896;45.990;18.688;2022-10-16T05:36:29;59.72;;;34.63;;
75297;SDS011;63896;45.990;18.688;2022-10-16T05:39:31;36.72;;;19.15;;
75297;SDS011;63896;45.990;18.688;2022-10-16T05:42:34;47.00;;;28.25;;
75297;SDS011;63896;45.990;18.688;2022-10-16T05:45:37;46.97;;;29.38;;
75297;SDS011;63896;45.990;18.688;2022-10-16T05:48:40;56.23;;;33.60;;
75297;SDS011;63896;45.990;18.688;2022-10-16T05:51:43;53.42;;;31.92;;
75297;SDS011;63896;45.990;18.688;2022-10-16T05:54:46;42.63;;;26.48;;
75297;SDS011;63896;45.990;18.688;2022-10-16T05:57:49;39.22;;;22.92;;
75297;SDS011;63896;45.990;18.688;2022-10-16T06:00:52;35.20;;;20.23;;
75297;SDS011;63896;45.990;18.688;2022-10-16T06:03:59;27.33;;;14.83;;
75297;SDS011;63896;45.990;18.688;2022-10-16T06:07:02;21.30;;;12.35;;
75297;SDS011;63896;45.990;18.688;2022-10-16T06:10:05;18.95;;;10.98;;
75297;SDS011;63896;45.990;18.688;2022-10-16T06:13:09;15.95;;;9.88;;
75297;SDS011;63896;45.990;18.688;2022-10-16T06:16:12;17.48;;;9.30;;
75297;SDS011;63896;45.990;18.688;2022-10-16T06:19:15;15.43;;;9.03;;
75297;SDS011;63896;45.990;18.688;2022-10-16T06:22:19;15.90;;;9.30;;
75297;SDS011;63896;45.990;18.688;2022-10-16T06:25:22;15.88;;;7.90;;
75297;SDS011;63896;45.990;18.688;2022-10-16T06:28:25;12.50;;;8.15;;
75297;SDS011;63896;45.990;18.688;2022-10-16T06:31:28;16.13;;;8.65;;
75297;SDS011;63896;45.990;18.688;2022-10-16T06:34:33;13.60;;;7.93;;
75297;SDS011;63896;45.990;18.688;2022-10-16T06:37:36;11.63;;;7.63;;
75297;SDS011;63896;45.990;18.688;2022-10-16T06:40:39;18.10;;;9.18;;
75297;SDS011;63896;45.990;18.688;2022-10-16T06:43:45;12.85;;;7.93;;
75297;SDS011;63896;45.990;18.688;2022-10-16T06:46:48;18.88;;;8.93;;
75297;SDS011;63896;45.990;18.688;2022-10-16T06:49:52;12.60;;;7.40;;
75297;SDS011;63896;45.990;18.688;2022-10-16T06:52:55;11.07;;;6.82;;
75297;SDS011;63896;45.990;18.688;2022-10-16T06:56:06;12.55;;;6.93;;
75297;SDS011;63896;45.990;18.688;2022-10-16T06:59:13;12.73;;;6.82;;
75297;SDS011;63896;45.990;18.688;2022-10-16T07:02:16;10.30;;;6.95;;
75297;SDS011;63896;45.990;18.688;2022-10-16T07:05:19;9.47;;;6.63;;
75297;SDS011;63896;45.990;18.688;2022-10-16T07:08:22;10.77;;;6.85;;
75297;SDS011;63896;45.990;18.688;2022-10-16T07:11:24;10.57;;;6.40;;
75297;SDS011;63896;45.990;18.688;2022-10-16T07:14:27;10.57;;;6.22;;
75297;SDS011;63896;45.990;18.688;2022-10-16T07:17:30;10.27;;;6.70;;
75297;SDS011;63896;45.990;18.688;2022-10-16T07:20:33;7.90;;;6.17;;
75297;SDS011;63896;45.990;18.688;2022-10-16T07:23:36;11.90;;;6.90;;
75297;SDS011;63896;45.990;18.688;2022-10-16T07:26:39;8.20;;;6.50;;
75297;SDS011;63896;45.990;18.688;2022-10-16T07:29:43;9.13;;;6.18;;
75297;SDS011;63896;45.990;18.688;2022-10-16T07:32:45;10.05;;;6.78;;
75297;SDS011;63896;45.990;18.688;2022-10-16T07:35:52;10.40;;;6.77;;
75297;SDS011;63896;45.990;18.688;2022-10-16T07:38:55;10.45;;;6.28;;
75297;SDS011;63896;45.990;18.688;2022-10-16T07:42:01;9.70;;;7.00;;
75297;SDS011;63896;45.990;18.688;2022-10-16T07:45:04;11.80;;;7.78;;
75297;SDS011;63896;45.990;18.688;2022-10-16T07:48:07;12.68;;;7.40;;
75297;SDS011;63896;45.990;18.688;2022-10-16T07:51:11;13.77;;;8.13;;
75297;SDS011;63896;45.990;18.688;2022-10-16T07:54:14;12.23;;;7.93;;
75297;SDS011;63896;45.990;18.688;2022-10-16T07:57:17;13.85;;;7.63;;
75297;SDS011;63896;45.990;18.688;2022-10-16T08:00:22;10.52;;;7.47;;
75297;SDS011;63896;45.990;18.688;2022-10-16T08:03:25;12.93;;;7.75;;
75297;SDS011;63896;45.990;18.688;2022-10-16T08:06:28;11.07;;;7.93;;
75297;SDS011;63896;45.990;18.688;2022-10-16T08:09:31;13.70;;;8.00;;
75297;SDS011;63896;45.990;18.688;2022-10-16T08:12:33;13.43;;;8.00;;
75297;SDS011;63896;45.990;18.688;2022-10-16T08:15:36;13.57;;;7.97;;
75297;SDS011;63896;45.990;18.688;2022-10-16T08:18:40;15.90;;;9.10;;
75297;SDS011;63896;45.990;18.688;2022-10-16T08:21:46;13.17;;;7.90;;
75297;SDS011;63896;45.990;18.688;2022-10-16T08:24:50;10.70;;;8.73;;
75297;SDS011;63896;45.990;18.688;2022-10-16T08:27:53;12.07;;;7.78;;
75297;SDS011;63896;45.990;18.688;2022-10-16T08:30:55;13.57;;;7.53;;
75297;SDS011;63896;45.990;18.688;2022-10-16T08:34:01;16.27;;;7.47;;
75297;SDS011;63896;45.990;18.688;2022-10-16T08:37:04;9.67;;;6.37;;
75297;SDS011;63896;45.990;18.688;2022-10-16T08:40:10;9.13;;;6.55;;
75297;SDS011;63896;45.990;18.688;2022-10-16T08:50:12;9.75;;;6.63;;
75297;SDS011;63896;45.990;18.688;2022-10-16T08:53:31;9.53;;;6.80;;
75297;SDS011;63896;45.990;18.688;2022-10-16T08:57:00;9.48;;;6.30;;
75297;SDS011;63896;45.990;18.688;2022-10-16T09:00:14;9.50;;;5.97;;
75297;SDS011;63896;45.990;18.688;2022-10-16T09:10:03;9.93;;;6.57;;
75297;SDS011;63896;45.990;18.688;2022-10-16T09:23:35;10.90;;;5.53;;
75297;SDS011;63896;45.990;18.688;2022-10-16T09:26:39;7.17;;;5.47;;
75297;SDS011;63896;45.990;18.688;2022-10-16T09:29:43;8.93;;;6.53;;
75297;SDS011;63896;45.990;18.688;2022-10-16T09:32:47;12.40;;;5.70;;
75297;SDS011;63896;45.990;18.688;2022-10-16T09:35:54;8.38;;;5.30;;
75297;SDS011;63896;45.990;18.688;2022-10-16T09:39:05;9.25;;;5.82;;
75297;SDS011;63896;45.990;18.688;2022-10-16T09:42:13;8.47;;;5.63;;
75297;SDS011;63896;45.990;18.688;2022-10-16T09:45:20;8.27;;;5.72;;
75297;SDS011;63896;45.990;18.688;2022-10-16T09:48:27;7.78;;;5.63;;
75297;SDS011;63896;45.990;18.688;2022-10-16T09:51:36;9.25;;;5.95;;
75297;SDS011;63896;45.990;18.688;2022-10-16T09:54:50;10.13;;;6.00;;
75297;SDS011;63896;45.990;18.688;2022-10-16T09:57:55;8.00;;;5.60;;
75297;SDS011;63896;45.990;18.688;2022-10-16T10:00:58;7.47;;;5.72;;
75297;SDS011;63896;45.990;18.688;2022-10-16T10:04:01;7.15;;;5.68;;
75297;SDS011;63896;45.990;18.688;2022-10-16T10:07:05;10.05;;;5.60;;
75297;SDS011;63896;45.990;18.688;2022-10-16T10:10:21;7.65;;;5.47;;
75297;SDS011;63896;45.990;18.688;2022-10-16T10:13:26;8.57;;;5.83;;
75297;SDS011;63896;45.990;18.688;2022-10-16T10:16:29;6.53;;;5.10;;
75297;SDS011;63896;45.990;18.688;2022-10-16T10:22:57;7.55;;;5.45;;
75297;SDS011;63896;45.990;18.688;2022-10-16T10:29:18;7.33;;;4.87;;
75297;SDS011;63896;45.990;18.688;2022-10-16T10:52:28;7.18;;;5.30;;
75297;SDS011;63896;45.990;18.688;2022-10-16T11:05:18;7.82;;;4.78;;
75297;SDS011;63896;45.990;18.688;2022-10-16T11:15:03;10.80;;;5.18;;
75297;SDS011;63896;45.990;18.688;2022-10-16T11:21:51;6.85;;;5.00;;
75297;SDS011;63896;45.990;18.688;2022-10-16T11:28:18;10.30;;;4.95;;
75297;SDS011;63896;45.990;18.688;2022-10-16T11:31:42;5.82;;;4.55;;
75297;SDS011;63896;45.990;18.688;2022-10-16T11:34:57;7.93;;;5.20;;
75297;SDS011;63896;45.990;18.688;2022-10-16T11:38:09;7.38;;;4.88;;
75297;SDS011;63896;45.990;18.688;2022-10-16T11:41:26;12.25;;;5.00;;
75297;SDS011;63896;45.990;18.688;2022-10-16T11:44:51;6.40;;;4.80;;
75297;SDS011;63896;45.990;18.688;2022-10-16T11:48:10;7.88;;;5.05;;
75297;SDS011;63896;45.990;18.688;2022-10-16T11:51:25;6.83;;;5.00;;
75297;SDS011;63896;45.990;18.688;2022-10-16T11:54:54;7.00;;;4.75;;
75297;SDS011;63896;45.990;18.688;2022-10-16T11:58:03;7.78;;;4.80;;
75297;SDS011;63896;45.990;18.688;2022-10-16T12:01:16;9.98;;;5.38;;
75297;SDS011;63896;45.990;18.688;2022-10-16T12:04:31;10.55;;;4.63;;
75297;SDS011;63896;45.990;18.688;2022-10-16T12:07:53;7.67;;;4.60;;
75297;SDS011;63896;45.990;18.688;2022-10-16T12:14:39;6.00;;;4.70;;
75297;SDS011;63896;45.990;18.688;2022-10-16T12:18:02;7.65;;;4.30;;
75297;SDS011;63896;45.990;18.688;2022-10-16T12:21:05;7.47;;;4.72;;
75297;SDS011;63896;45.990;18.688;2022-10-16T12:27:40;12.82;;;4.75;;
75297;SDS011;63896;45.990;18.688;2022-10-16T12:30:51;7.72;;;4.38;;
75297;SDS011;63896;45.990;18.688;2022-10-16T12:33:58;9.02;;;4.57;;
75297;SDS011;63896;45.990;18.688;2022-10-16T12:40:35;5.33;;;4.10;;
75297;SDS011;63896;45.990;18.688;2022-10-16T12:43:44;5.78;;;4.45;;
75297;SDS011;63896;45.990;18.688;2022-10-16T12:46:48;6.20;;;4.45;;
75297;SDS011;63896;45.990;18.688;2022-10-16T12:49:54;5.82;;;4.47;;
75297;SDS011;63896;45.990;18.688;2022-10-16T12:52:57;7.63;;;5.53;;
75297;SDS011;63896;45.990;18.688;2022-10-16T13:02:47;7.30;;;4.38;;
75297;SDS011;63896;45.990;18.688;2022-10-16T13:16:07;8.30;;;5.32;;
75297;SDS011;63896;45.990;18.688;2022-10-16T13:19:34;8.48;;;5.43;;
75297;SDS011;63896;45.990;18.688;2022-10-16T13:26:10;10.70;;;5.72;;
75297;SDS011;63896;45.990;18.688;2022-10-16T13:29:18;7.57;;;5.10;;
75297;SDS011;63896;45.990;18.688;2022-10-16T13:32:22;7.68;;;4.88;;
75297;SDS011;63896;45.990;18.688;2022-10-16T13:35:29;10.27;;;5.15;;
75297;SDS011;63896;45.990;18.688;2022-10-16T13:38:34;6.93;;;4.57;;
75297;SDS011;63896;45.990;18.688;2022-10-16T13:41:38;7.35;;;5.32;;
75297;SDS011;63896;45.990;18.688;2022-10-16T13:44:45;6.37;;;4.37;;
75297;SDS011;63896;45.990;18.688;2022-10-16T13:48:05;7.65;;;4.78;;
75297;SDS011;63896;45.990;18.688;2022-10-16T13:51:13;8.75;;;4.55;;
75297;SDS011;63896;45.990;18.688;2022-10-16T13:54:20;5.88;;;4.88;;
75297;SDS011;63896;45.990;18.688;2022-10-16T13:57:24;8.25;;;4.75;;
75297;SDS011;63896;45.990;18.688;2022-10-16T14:00:29;7.30;;;4.23;;
75297;SDS011;63896;45.990;18.688;2022-10-16T14:03:33;8.35;;;4.35;;
75297;SDS011;63896;45.990;18.688;2022-10-16T14:06:40;7.32;;;4.28;;
75297;SDS011;63896;45.990;18.688;2022-10-16T14:09:47;12.27;;;4.95;;
75297;SDS011;63896;45.990;18.688;2022-10-16T14:12:56;8.35;;;4.45;;
75297;SDS011;63896;45.990;18.688;2022-10-16T14:16:02;10.00;;;4.43;;
75297;SDS011;63896;45.990;18.688;2022-10-16T14:19:20;8.55;;;4.82;;
75297;SDS011;63896;45.990;18.688;2022-10-16T14:25:45;9.32;;;4.53;;
75297;SDS011;63896;45.990;18.688;2022-10-16T14:28:48;7.78;;;4.30;;
75297;SDS011;63896;45.990;18.688;2022-10-16T14:32:04;8.03;;;4.67;;
75297;SDS011;63896;45.990;18.688;2022-10-16T14:35:25;9.82;;;4.78;;
75297;SDS011;63896;45.990;18.688;2022-10-16T14:38:31;10.13;;;4.57;;
75297;SDS011;63896;45.990;18.688;2022-10-16T14:41:41;6.82;;;3.88;;
75297;SDS011;63896;45.990;18.688;2022-10-16T14:44:47;9.90;;;4.13;;
75297;SDS011;63896;45.990;18.688;2022-10-16T14:48:01;7.97;;;4.53;;
75297;SDS011;63896;45.990;18.688;2022-10-16T14:51:11;10.82;;;4.93;;
75297;SDS011;63896;45.990;18.688;2022-10-16T14:54:17;8.40;;;4.65;;
75297;SDS011;63896;45.990;18.688;2022-10-16T14:57:23;7.57;;;5.18;;
75297;SDS011;63896;45.990;18.688;2022-10-16T15:00:30;11.27;;;6.53;;
75297;SDS011;63896;45.990;18.688;2022-10-16T15:03:33;15.67;;;8.63;;
75297;SDS011;63896;45.990;18.688;2022-10-16T15:06:36;10.10;;;6.22;;
75297;SDS011;63896;45.990;18.688;2022-10-16T15:09:40;14.07;;;6.13;;
75297;SDS011;63896;45.990;18.688;2022-10-16T15:12:50;15.52;;;5.78;;
75297;SDS011;63896;45.990;18.688;2022-10-16T15:15:53;14.23;;;6.10;;
75297;SDS011;63896;45.990;18.688;2022-10-16T15:18:56;10.07;;;5.13;;
75297;SDS011;63896;45.990;18.688;2022-10-16T15:22:00;11.75;;;5.55;;
75297;SDS011;63896;45.990;18.688;2022-10-16T15:25:08;10.23;;;5.80;;
75297;SDS011;63896;45.990;18.688;2022-10-16T15:28:33;10.68;;;5.95;;
75297;SDS011;63896;45.990;18.688;2022-10-16T15:31:37;13.45;;;6.25;;
75297;SDS011;63896;45.990;18.688;2022-10-16T15:34:40;9.00;;;5.87;;
75297;SDS011;63896;45.990;18.688;2022-10-16T15:37:45;9.32;;;4.88;;
75297;SDS011;63896;45.990;18.688;2022-10-16T15:40:50;9.38;;;5.55;;
75297;SDS011;63896;45.990;18.688;2022-10-16T15:43:53;14.05;;;5.78;;
75297;SDS011;63896;45.990;18.688;2022-10-16T15:46:56;11.13;;;5.00;;
75297;SDS011;63896;45.990;18.688;2022-10-16T15:49:59;9.17;;;5.30;;
75297;SDS011;63896;45.990;18.688;2022-10-16T15:53:02;9.80;;;5.28;;
75297;SDS011;63896;45.990;18.688;2022-10-16T15:56:05;10.73;;;5.53;;
75297;SDS011;63896;45.990;18.688;2022-10-16T15:59:09;13.88;;;4.88;;
75297;SDS011;63896;45.990;18.688;2022-10-16T16:02:12;8.60;;;5.15;;
75297;SDS011;63896;45.990;18.688;2022-10-16T16:05:15;8.27;;;4.83;;
75297;SDS011;63896;45.990;18.688;2022-10-16T16:08:19;14.05;;;5.38;;
75297;SDS011;63896;45.990;18.688;2022-10-16T16:11:22;9.25;;;4.80;;
75297;SDS011;63896;45.990;18.688;2022-10-16T16:14:26;10.85;;;5.43;;
75297;SDS011;63896;45.990;18.688;2022-10-16T16:17:30;10.15;;;4.90;;
75297;SDS011;63896;45.990;18.688;2022-10-16T16:20:33;10.33;;;5.80;;
75297;SDS011;63896;45.990;18.688;2022-10-16T16:23:36;10.55;;;5.95;;
75297;SDS011;63896;45.990;18.688;2022-10-16T16:26:39;14.35;;;6.50;;
75297;SDS011;63896;45.990;18.688;2022-10-16T16:29:46;16.15;;;6.80;;
75297;SDS011;63896;45.990;18.688;2022-10-16T16:32:49;13.27;;;7.93;;
75297;SDS011;63896;45.990;18.688;2022-10-16T16:35:56;13.40;;;6.93;;
75297;SDS011;63896;45.990;18.688;2022-10-16T16:39:00;12.48;;;7.22;;
75297;SDS011;63896;45.990;18.688;2022-10-16T16:42:03;14.80;;;7.18;;
75297;SDS011;63896;45.990;18.688;2022-10-16T16:45:08;15.20;;;7.40;;
75297;SDS011;63896;45.990;18.688;2022-10-16T16:48:11;14.52;;;7.70;;
75297;SDS011;63896;45.990;18.688;2022-10-16T16:51:15;18.73;;;8.20;;
75297;SDS011;63896;45.990;18.688;2022-10-16T16:54:21;13.80;;;7.95;;
75297;SDS011;63896;45.990;18.688;2022-10-16T16:57:25;14.07;;;7.85;;
75297;SDS011;63896;45.990;18.688;2022-10-16T17:00:28;14.65;;;7.97;;
75297;SDS011;63896;45.990;18.688;2022-10-16T17:03:32;15.70;;;8.02;;
75297;SDS011;63896;45.990;18.688;2022-10-16T17:06:36;12.97;;;7.23;;
75297;SDS011;63896;45.990;18.688;2022-10-16T17:09:39;11.88;;;7.65;;
75297;SDS011;63896;45.990;18.688;2022-10-16T17:12:42;13.07;;;6.78;;
75297;SDS011;63896;45.990;18.688;2022-10-16T17:15:45;16.45;;;7.45;;
75297;SDS011;63896;45.990;18.688;2022-10-16T17:18:49;15.23;;;7.82;;
75297;SDS011;63896;45.990;18.688;2022-10-16T17:21:52;31.77;;;11.60;;
75297;SDS011;63896;45.990;18.688;2022-10-16T17:24:56;22.65;;;10.73;;
75297;SDS011;63896;45.990;18.688;2022-10-16T17:27:59;23.67;;;10.73;;
75297;SDS011;63896;45.990;18.688;2022-10-16T17:34:18;22.55;;;10.48;;
75297;SDS011;63896;45.990;18.688;2022-10-16T17:37:21;23.97;;;11.20;;
75297;SDS011;63896;45.990;18.688;2022-10-16T17:40:24;23.52;;;12.65;;
75297;SDS011;63896;45.990;18.688;2022-10-16T17:43:27;22.58;;;12.40;;
75297;SDS011;63896;45.990;18.688;2022-10-16T17:46:30;20.27;;;10.95;;
75297;SDS011;63896;45.990;18.688;2022-10-16T17:49:41;17.10;;;10.57;;
75297;SDS011;63896;45.990;18.688;2022-10-16T17:52:44;17.03;;;10.70;;
75297;SDS011;63896;45.990;18.688;2022-10-16T17:55:47;17.35;;;9.43;;
75297;SDS011;63896;45.990;18.688;2022-10-16T17:58:51;17.98;;;10.45;;
75297;SDS011;63896;45.990;18.688;2022-10-16T18:01:55;21.33;;;9.20;;
75297;SDS011;63896;45.990;18.688;2022-10-16T18:04:58;14.30;;;8.30;;
75297;SDS011;63896;45.990;18.688;2022-10-16T18:08:01;18.40;;;8.70;;
75297;SDS011;63896;45.990;18.688;2022-10-16T18:11:04;18.25;;;9.18;;
75297;SDS011;63896;45.990;18.688;2022-10-16T18:14:07;27.58;;;8.70;;
75297;SDS011;63896;45.990;18.688;2022-10-16T18:17:12;15.60;;;7.60;;
75297;SDS011;63896;45.990;18.688;2022-10-16T18:20:16;14.27;;;7.65;;
75297;SDS011;63896;45.990;18.688;2022-10-16T18:23:20;16.93;;;7.13;;
75297;SDS011;63896;45.990;18.688;2022-10-16T18:26:22;14.40;;;7.70;;
75297;SDS011;63896;45.990;18.688;2022-10-16T18:29:26;19.40;;;8.70;;
75297;SDS011;63896;45.990;18.688;2022-10-16T18:32:29;20.30;;;9.75;;
75297;SDS011;63896;45.990;18.688;2022-10-16T18:35:34;21.70;;;10.73;;
75297;SDS011;63896;45.990;18.688;2022-10-16T18:38:37;22.70;;;12.43;;
75297;SDS011;63896;45.990;18.688;2022-10-16T18:41:41;25.27;;;14.75;;
75297;SDS011;63896;45.990;18.688;2022-10-16T18:44:49;28.10;;;14.52;;
75297;SDS011;63896;45.990;18.688;2022-10-16T18:47:54;28.05;;;13.95;;
75297;SDS011;63896;45.990;18.688;2022-10-16T18:51:06;32.45;;;13.52;;
75297;SDS011;63896;45.990;18.688;2022-10-16T18:54:14;22.33;;;12.57;;
75297;SDS011;63896;45.990;18.688;2022-10-16T18:57:17;21.13;;;12.35;;
75297;SDS011;63896;45.990;18.688;2022-10-16T19:00:20;19.58;;;11.70;;
75297;SDS011;63896;45.990;18.688;2022-10-16T19:03:23;23.38;;;11.23;;
75297;SDS011;63896;45.990;18.688;2022-10-16T19:06:26;20.05;;;11.50;;
75297;SDS011;63896;45.990;18.688;2022-10-16T19:09:30;22.67;;;12.07;;
75297;SDS011;63896;45.990;18.688;2022-10-16T19:12:33;17.98;;;11.18;;
75297;SDS011;63896;45.990;18.688;2022-10-16T19:15:40;19.00;;;10.77;;
75297;SDS011;63896;45.990;18.688;2022-10-16T19:18:55;18.95;;;10.02;;
75297;SDS011;63896;45.990;18.688;2022-10-16T19:21:59;17.40;;;10.05;;
75297;SDS011;63896;45.990;18.688;2022-10-16T19:25:19;19.53;;;10.50;;
75297;SDS011;63896;45.990;18.688;2022-10-16T19:28:23;21.88;;;11.07;;
75297;SDS011;63896;45.990;18.688;2022-10-16T19:31:27;18.73;;;11.15;;
75297;SDS011;63896;45.990;18.688;2022-10-16T19:34:31;18.48;;;10.50;;
75297;SDS011;63896;45.990;18.688;2022-10-16T19:37:35;18.13;;;10.68;;
75297;SDS011;63896;45.990;18.688;2022-10-16T19:40:38;19.00;;;11.03;;
75297;SDS011;63896;45.990;18.688;2022-10-16T19:43:41;18.58;;;9.50;;
75297;SDS011;63896;45.990;18.688;2022-10-16T19:46:44;21.92;;;10.25;;
75297;SDS011;63896;45.990;18.688;2022-10-16T19:49:50;21.08;;;12.70;;
75297;SDS011;63896;45.990;18.688;2022-10-16T19:52:53;29.95;;;18.00;;
75297;SDS011;63896;45.990;18.688;2022-10-16T19:55:56;35.10;;;20.90;;
75297;SDS011;63896;45.990;18.688;2022-10-16T19:59:00;29.98;;;19.73;;
75297;SDS011;63896;45.990;18.688;2022-10-16T20:02:03;26.58;;;15.10;;
75297;SDS011;63896;45.990;18.688;2022-10-16T20:05:06;20.00;;;12.35;;
75297;SDS011;63896;45.990;18.688;2022-10-16T20:08:09;25.83;;;11.85;;
75297;SDS011;63896;45.990;18.688;2022-10-16T20:11:13;18.80;;;9.93;;
75297;SDS011;63896;45.990;18.688;2022-10-16T20:14:18;17.92;;;9.07;;
75297;SDS011;63896;45.990;18.688;2022-10-16T20:17:21;16.08;;;8.63;;